sensor_id;sensor_type;location;lat;lon;timestamp;P1;durP1;ratioP1;P2;durP2;ratioP2
45842;SDS011;31563;51.744;8.252;2023-08-07T00:00:55;1.63;;;0.40;;
45842;SDS011;31563;51.744;8.252;2023-08-07T00:03:23;3.63;;;0.50;;
45842;SDS011;31563;51.744;8.252;2023-08-07T00:05:53;2.80;;;0.43;;
45842;SDS011;31563;51.744;8.252;2023-08-07T00:08:21;2.25;;;0.57;;
45842;SDS011;31563;51.744;8.252;2023-08-07T00:10:49;2.30;;;0.60;;
45842;SDS011;31563;51.744;8.252;2023-08-07T00:13:17;4.13;;;0.60;;
45842;SDS011;31563;51.744;8.252;2023-08-07T00:15:44;1.20;;;0.20;;
45842;SDS011;31563;51.744;8.252;2023-08-07T00:18:12;2.40;;;0.30;;
45842;SDS011;31563;51.744;8.252;2023-08-07T00:20:40;3.95;;;0.80;;
45842;SDS011;31563;51.744;8.252;2023-08-07T00:23:09;3.20;;;0.52;;
45842;SDS011;31563;51.744;8.252;2023-08-07T00:25:37;1.53;;;0.30;;
45842;SDS011;31563;51.744;8.252;2023-08-07T00:28:05;1.60;;;0.30;;
45842;SDS011;31563;51.744;8.252;2023-08-07T00:30:33;1.77;;;0.30;;
45842;SDS011;31563;51.744;8.252;2023-08-07T00:33:01;1.05;;;0.20;;
45842;SDS011;31563;51.744;8.252;2023-08-07T00:35:29;1.95;;;0.35;;
45842;SDS011;31563;51.744;8.252;2023-08-07T00:37:57;0.63;;;0.17;;
45842;SDS011;31563;51.744;8.252;2023-08-07T00:40:26;0.68;;;0.22;;
45842;SDS011;31563;51.744;8.252;2023-08-07T00:42:54;1.13;;;0.40;;
45842;SDS011;31563;51.744;8.252;2023-08-07T00:45:22;1.15;;;0.20;;
45842;SDS011;31563;51.744;8.252;2023-08-07T00:47:50;2.78;;;0.25;;
45842;SDS011;31563;51.744;8.252;2023-08-07T00:50:18;2.22;;;0.30;;
45842;SDS011;31563;51.744;8.252;2023-08-07T00:52:49;1.13;;;0.20;;
45842;SDS011;31563;51.744;8.252;2023-08-07T00:55:17;0.60;;;0.20;;
45842;SDS011;31563;51.744;8.252;2023-08-07T00:57:46;1.80;;;0.20;;
45842;SDS011;31563;51.744;8.252;2023-08-07T01:00:14;1.00;;;0.20;;
45842;SDS011;31563;51.744;8.252;2023-08-07T01:02:43;3.00;;;0.20;;
45842;SDS011;31563;51.744;8.252;2023-08-07T01:05:11;1.02;;;0.40;;
45842;SDS011;31563;51.744;8.252;2023-08-07T01:07:39;1.02;;;0.20;;
45842;SDS011;31563;51.744;8.252;2023-08-07T01:10:07;0.90;;;0.20;;
45842;SDS011;31563;51.744;8.252;2023-08-07T01:12:36;0.30;;;0.20;;
45842;SDS011;31563;51.744;8.252;2023-08-07T01:15:12;0.80;;;0.20;;
45842;SDS011;31563;51.744;8.252;2023-08-07T01:17:43;0.90;;;0.20;;
45842;SDS011;31563;51.744;8.252;2023-08-07T01:22:42;1.58;;;0.20;;
45842;SDS011;31563;51.744;8.252;2023-08-07T01:25:10;1.70;;;0.20;;
45842;SDS011;31563;51.744;8.252;2023-08-07T01:27:41;1.40;;;0.20;;
45842;SDS011;31563;51.744;8.252;2023-08-07T01:30:15;1.00;;;0.25;;
45842;SDS011;31563;51.744;8.252;2023-08-07T01:32:49;0.77;;;0.17;;
45842;SDS011;31563;51.744;8.252;2023-08-07T01:35:26;1.45;;;0.20;;
45842;SDS011;31563;51.744;8.252;2023-08-07T01:37:58;0.75;;;0.20;;
45842;SDS011;31563;51.744;8.252;2023-08-07T01:40:28;0.80;;;0.20;;
45842;SDS011;31563;51.744;8.252;2023-08-07T01:42:57;0.93;;;0.30;;
45842;SDS011;31563;51.744;8.252;2023-08-07T01:45:26;1.48;;;0.20;;
45842;SDS011;31563;51.744;8.252;2023-08-07T01:47:55;0.77;;;0.20;;
45842;SDS011;31563;51.744;8.252;2023-08-07T01:50:23;0.50;;;0.17;;
45842;SDS011;31563;51.744;8.252;2023-08-07T01:52:52;0.82;;;0.20;;
45842;SDS011;31563;51.744;8.252;2023-08-07T01:55:22;0.38;;;0.20;;
45842;SDS011;31563;51.744;8.252;2023-08-07T01:57:50;1.73;;;0.20;;
45842;SDS011;31563;51.744;8.252;2023-08-07T02:00:18;0.40;;;0.20;;
45842;SDS011;31563;51.744;8.252;2023-08-07T02:02:46;0.82;;;0.20;;
45842;SDS011;31563;51.744;8.252;2023-08-07T02:05:14;0.88;;;0.30;;
45842;SDS011;31563;51.744;8.252;2023-08-07T02:07:43;1.98;;;0.10;;
45842;SDS011;31563;51.744;8.252;2023-08-07T02:10:11;0.50;;;0.20;;
45842;SDS011;31563;51.744;8.252;2023-08-07T02:12:41;2.55;;;0.50;;
45842;SDS011;31563;51.744;8.252;2023-08-07T02:15:09;1.35;;;0.20;;
45842;SDS011;31563;51.744;8.252;2023-08-07T02:17:37;1.10;;;0.30;;
45842;SDS011;31563;51.744;8.252;2023-08-07T02:20:08;0.32;;;0.10;;
45842;SDS011;31563;51.744;8.252;2023-08-07T02:22:36;1.17;;;0.20;;
45842;SDS011;31563;51.744;8.252;2023-08-07T02:25:05;1.38;;;0.10;;
45842;SDS011;31563;51.744;8.252;2023-08-07T02:27:33;0.70;;;0.20;;
45842;SDS011;31563;51.744;8.252;2023-08-07T02:30:02;1.00;;;0.30;;
45842;SDS011;31563;51.744;8.252;2023-08-07T02:32:31;1.05;;;0.20;;
45842;SDS011;31563;51.744;8.252;2023-08-07T02:34:59;1.08;;;0.40;;
45842;SDS011;31563;51.744;8.252;2023-08-07T02:37:27;0.80;;;0.20;;
45842;SDS011;31563;51.744;8.252;2023-08-07T02:39:55;0.57;;;0.22;;
45842;SDS011;31563;51.744;8.252;2023-08-07T02:42:23;0.50;;;0.30;;
45842;SDS011;31563;51.744;8.252;2023-08-07T02:44:51;0.50;;;0.17;;
45842;SDS011;31563;51.744;8.252;2023-08-07T02:47:20;0.80;;;0.30;;
45842;SDS011;31563;51.744;8.252;2023-08-07T02:49:48;0.77;;;0.20;;
45842;SDS011;31563;51.744;8.252;2023-08-07T02:52:16;0.73;;;0.30;;
45842;SDS011;31563;51.744;8.252;2023-08-07T02:54:44;0.55;;;0.20;;
45842;SDS011;31563;51.744;8.252;2023-08-07T02:57:12;0.77;;;0.45;;
45842;SDS011;31563;51.744;8.252;2023-08-07T02:59:40;1.23;;;0.20;;
45842;SDS011;31563;51.744;8.252;2023-08-07T03:02:08;1.25;;;0.30;;
45842;SDS011;31563;51.744;8.252;2023-08-07T03:04:37;2.13;;;0.28;;
45842;SDS011;31563;51.744;8.252;2023-08-07T03:07:05;1.77;;;0.33;;
45842;SDS011;31563;51.744;8.252;2023-08-07T03:09:33;1.05;;;0.22;;
45842;SDS011;31563;51.744;8.252;2023-08-07T03:12:01;0.20;;;0.10;;
45842;SDS011;31563;51.744;8.252;2023-08-07T03:14:30;0.70;;;0.13;;
45842;SDS011;31563;51.744;8.252;2023-08-07T03:16:58;1.48;;;0.10;;
45842;SDS011;31563;51.744;8.252;2023-08-07T03:19:26;0.52;;;0.20;;
45842;SDS011;31563;51.744;8.252;2023-08-07T03:21:55;0.20;;;0.10;;
45842;SDS011;31563;51.744;8.252;2023-08-07T03:24:23;0.10;;;0.10;;
45842;SDS011;31563;51.744;8.252;2023-08-07T03:26:51;0.63;;;0.10;;
45842;SDS011;31563;51.744;8.252;2023-08-07T03:29:19;1.02;;;0.10;;
45842;SDS011;31563;51.744;8.252;2023-08-07T03:31:47;0.17;;;0.00;;
45842;SDS011;31563;51.744;8.252;2023-08-07T03:34:15;1.63;;;0.22;;
45842;SDS011;31563;51.744;8.252;2023-08-07T03:36:43;0.20;;;0.10;;
45842;SDS011;31563;51.744;8.252;2023-08-07T03:39:13;0.63;;;0.10;;
45842;SDS011;31563;51.744;8.252;2023-08-07T03:41:41;0.75;;;0.03;;
45842;SDS011;31563;51.744;8.252;2023-08-07T03:44:08;0.30;;;0.10;;
45842;SDS011;31563;51.744;8.252;2023-08-07T03:46:36;0.75;;;0.05;;
45842;SDS011;31563;51.744;8.252;2023-08-07T03:49:05;1.17;;;0.10;;
45842;SDS011;31563;51.744;8.252;2023-08-07T03:51:33;1.50;;;0.10;;
45842;SDS011;31563;51.744;8.252;2023-08-07T03:54:01;0.43;;;0.10;;
45842;SDS011;31563;51.744;8.252;2023-08-07T03:56:30;1.52;;;0.20;;
45842;SDS011;31563;51.744;8.252;2023-08-07T03:59:02;0.28;;;0.10;;
45842;SDS011;31563;51.744;8.252;2023-08-07T04:01:30;0.20;;;0.10;;
45842;SDS011;31563;51.744;8.252;2023-08-07T04:03:58;0.30;;;0.20;;
45842;SDS011;31563;51.744;8.252;2023-08-07T04:06:26;2.28;;;0.20;;
45842;SDS011;31563;51.744;8.252;2023-08-07T04:08:55;0.63;;;0.20;;
45842;SDS011;31563;51.744;8.252;2023-08-07T04:11:22;0.75;;;0.20;;
45842;SDS011;31563;51.744;8.252;2023-08-07T04:13:52;0.40;;;0.10;;
45842;SDS011;31563;51.744;8.252;2023-08-07T04:16:20;1.50;;;0.10;;
45842;SDS011;31563;51.744;8.252;2023-08-07T04:18:48;0.35;;;0.10;;
45842;SDS011;31563;51.744;8.252;2023-08-07T04:21:15;0.13;;;0.10;;
45842;SDS011;31563;51.744;8.252;2023-08-07T04:23:43;0.80;;;0.10;;
45842;SDS011;31563;51.744;8.252;2023-08-07T04:26:11;0.45;;;0.10;;
45842;SDS011;31563;51.744;8.252;2023-08-07T04:28:40;0.60;;;0.20;;
45842;SDS011;31563;51.744;8.252;2023-08-07T04:31:09;0.20;;;0.10;;
45842;SDS011;31563;51.744;8.252;2023-08-07T04:33:37;0.47;;;0.20;;
45842;SDS011;31563;51.744;8.252;2023-08-07T04:36:05;0.95;;;0.28;;
45842;SDS011;31563;51.744;8.252;2023-08-07T04:38:34;0.28;;;0.10;;
45842;SDS011;31563;51.744;8.252;2023-08-07T04:41:02;1.38;;;0.20;;
45842;SDS011;31563;51.744;8.252;2023-08-07T04:43:30;1.67;;;0.40;;
45842;SDS011;31563;51.744;8.252;2023-08-07T04:45:59;2.00;;;0.70;;
45842;SDS011;31563;51.744;8.252;2023-08-07T04:48:29;1.25;;;0.28;;
45842;SDS011;31563;51.744;8.252;2023-08-07T04:50:57;1.77;;;0.30;;
45842;SDS011;31563;51.744;8.252;2023-08-07T04:53:25;1.17;;;0.30;;
45842;SDS011;31563;51.744;8.252;2023-08-07T04:55:53;0.30;;;0.20;;
45842;SDS011;31563;51.744;8.252;2023-08-07T04:58:21;2.13;;;0.38;;
45842;SDS011;31563;51.744;8.252;2023-08-07T05:00:53;4.07;;;0.70;;
45842;SDS011;31563;51.744;8.252;2023-08-07T05:03:22;6.03;;;0.63;;
45842;SDS011;31563;51.744;8.252;2023-08-07T05:05:51;2.08;;;0.47;;
45842;SDS011;31563;51.744;8.252;2023-08-07T05:08:25;5.20;;;1.13;;
45842;SDS011;31563;51.744;8.252;2023-08-07T05:10:53;4.75;;;0.63;;
45842;SDS011;31563;51.744;8.252;2023-08-07T05:13:21;3.70;;;0.70;;
45842;SDS011;31563;51.744;8.252;2023-08-07T05:15:49;3.53;;;0.60;;
45842;SDS011;31563;51.744;8.252;2023-08-07T05:18:17;1.20;;;0.35;;
45842;SDS011;31563;51.744;8.252;2023-08-07T05:20:45;4.47;;;0.40;;
45842;SDS011;31563;51.744;8.252;2023-08-07T05:23:15;2.80;;;0.88;;
45842;SDS011;31563;51.744;8.252;2023-08-07T05:25:44;3.80;;;1.00;;
45842;SDS011;31563;51.744;8.252;2023-08-07T05:28:15;2.10;;;0.40;;
45842;SDS011;31563;51.744;8.252;2023-08-07T05:30:43;2.53;;;0.63;;
45842;SDS011;31563;51.744;8.252;2023-08-07T05:33:11;3.17;;;0.50;;
45842;SDS011;31563;51.744;8.252;2023-08-07T05:35:41;3.95;;;1.38;;
45842;SDS011;31563;51.744;8.252;2023-08-07T05:38:09;3.45;;;0.68;;
45842;SDS011;31563;51.744;8.252;2023-08-07T05:40:38;2.08;;;0.60;;
45842;SDS011;31563;51.744;8.252;2023-08-07T05:43:06;3.08;;;0.63;;
45842;SDS011;31563;51.744;8.252;2023-08-07T05:45:34;2.60;;;0.50;;
45842;SDS011;31563;51.744;8.252;2023-08-07T05:48:02;2.83;;;0.70;;
45842;SDS011;31563;51.744;8.252;2023-08-07T05:50:31;1.67;;;0.63;;
45842;SDS011;31563;51.744;8.252;2023-08-07T05:52:59;1.83;;;0.50;;
45842;SDS011;31563;51.744;8.252;2023-08-07T05:55:26;2.13;;;0.40;;
45842;SDS011;31563;51.744;8.252;2023-08-07T05:57:56;2.25;;;0.40;;
45842;SDS011;31563;51.744;8.252;2023-08-07T06:00:23;2.10;;;0.40;;
45842;SDS011;31563;51.744;8.252;2023-08-07T06:02:51;1.17;;;0.32;;
45842;SDS011;31563;51.744;8.252;2023-08-07T06:05:19;1.98;;;0.40;;
45842;SDS011;31563;51.744;8.252;2023-08-07T06:07:47;5.30;;;0.50;;
45842;SDS011;31563;51.744;8.252;2023-08-07T06:10:15;1.75;;;0.50;;
45842;SDS011;31563;51.744;8.252;2023-08-07T06:12:43;1.95;;;0.40;;
45842;SDS011;31563;51.744;8.252;2023-08-07T06:15:12;3.60;;;0.50;;
45842;SDS011;31563;51.744;8.252;2023-08-07T06:17:40;2.15;;;0.47;;
45842;SDS011;31563;51.744;8.252;2023-08-07T06:20:08;1.45;;;0.35;;
45842;SDS011;31563;51.744;8.252;2023-08-07T06:22:38;2.45;;;0.65;;
45842;SDS011;31563;51.744;8.252;2023-08-07T06:25:06;2.05;;;0.55;;
45842;SDS011;31563;51.744;8.252;2023-08-07T06:27:35;2.58;;;0.50;;
45842;SDS011;31563;51.744;8.252;2023-08-07T06:30:03;1.40;;;0.45;;
45842;SDS011;31563;51.744;8.252;2023-08-07T06:32:33;2.22;;;0.70;;
45842;SDS011;31563;51.744;8.252;2023-08-07T06:35:01;2.35;;;0.50;;
45842;SDS011;31563;51.744;8.252;2023-08-07T06:37:29;0.85;;;0.32;;
45842;SDS011;31563;51.744;8.252;2023-08-07T06:39:57;2.17;;;0.80;;
45842;SDS011;31563;51.744;8.252;2023-08-07T06:42:25;2.10;;;0.40;;
45842;SDS011;31563;51.744;8.252;2023-08-07T06:44:52;2.13;;;0.60;;
45842;SDS011;31563;51.744;8.252;2023-08-07T06:47:20;1.95;;;0.70;;
45842;SDS011;31563;51.744;8.252;2023-08-07T06:49:50;1.60;;;0.50;;
45842;SDS011;31563;51.744;8.252;2023-08-07T06:52:18;2.22;;;0.50;;
45842;SDS011;31563;51.744;8.252;2023-08-07T06:54:45;0.82;;;0.50;;
45842;SDS011;31563;51.744;8.252;2023-08-07T06:57:13;2.88;;;0.60;;
45842;SDS011;31563;51.744;8.252;2023-08-07T06:59:41;1.52;;;0.60;;
45842;SDS011;31563;51.744;8.252;2023-08-07T07:02:09;2.03;;;0.60;;
45842;SDS011;31563;51.744;8.252;2023-08-07T07:04:37;1.35;;;0.38;;
45842;SDS011;31563;51.744;8.252;2023-08-07T07:07:06;1.95;;;0.40;;
45842;SDS011;31563;51.744;8.252;2023-08-07T07:09:34;1.70;;;0.60;;
45842;SDS011;31563;51.744;8.252;2023-08-07T07:12:02;6.47;;;0.90;;
45842;SDS011;31563;51.744;8.252;2023-08-07T07:14:32;5.65;;;1.00;;
45842;SDS011;31563;51.744;8.252;2023-08-07T07:17:00;2.95;;;0.73;;
45842;SDS011;31563;51.744;8.252;2023-08-07T07:19:28;5.25;;;1.30;;
45842;SDS011;31563;51.744;8.252;2023-08-07T07:21:56;3.17;;;0.80;;
45842;SDS011;31563;51.744;8.252;2023-08-07T07:24:25;2.58;;;0.90;;
45842;SDS011;31563;51.744;8.252;2023-08-07T07:26:53;3.60;;;0.80;;
45842;SDS011;31563;51.744;8.252;2023-08-07T07:29:21;2.15;;;0.70;;
45842;SDS011;31563;51.744;8.252;2023-08-07T07:31:49;4.75;;;0.90;;
45842;SDS011;31563;51.744;8.252;2023-08-07T07:34:17;5.60;;;0.73;;
45842;SDS011;31563;51.744;8.252;2023-08-07T07:36:45;2.08;;;0.80;;
45842;SDS011;31563;51.744;8.252;2023-08-07T07:39:13;3.42;;;0.70;;
45842;SDS011;31563;51.744;8.252;2023-08-07T07:41:42;1.77;;;0.70;;
45842;SDS011;31563;51.744;8.252;2023-08-07T07:44:10;4.32;;;0.60;;
45842;SDS011;31563;51.744;8.252;2023-08-07T07:46:39;2.70;;;0.70;;
45842;SDS011;31563;51.744;8.252;2023-08-07T07:49:07;3.97;;;0.95;;
45842;SDS011;31563;51.744;8.252;2023-08-07T07:51:35;2.72;;;0.82;;
45842;SDS011;31563;51.744;8.252;2023-08-07T07:54:03;2.13;;;0.68;;
45842;SDS011;31563;51.744;8.252;2023-08-07T07:56:34;4.20;;;0.82;;
45842;SDS011;31563;51.744;8.252;2023-08-07T07:59:03;1.77;;;0.80;;
45842;SDS011;31563;51.744;8.252;2023-08-07T08:01:34;2.60;;;0.88;;
45842;SDS011;31563;51.744;8.252;2023-08-07T08:04:03;1.65;;;0.70;;
45842;SDS011;31563;51.744;8.252;2023-08-07T08:06:31;1.70;;;0.60;;
45842;SDS011;31563;51.744;8.252;2023-08-07T08:08:59;1.90;;;0.60;;
45842;SDS011;31563;51.744;8.252;2023-08-07T08:11:30;1.85;;;0.70;;
45842;SDS011;31563;51.744;8.252;2023-08-07T08:13:58;4.28;;;0.90;;
45842;SDS011;31563;51.744;8.252;2023-08-07T08:16:27;1.85;;;0.70;;
45842;SDS011;31563;51.744;8.252;2023-08-07T08:18:55;1.35;;;0.60;;
45842;SDS011;31563;51.744;8.252;2023-08-07T08:21:23;2.00;;;0.77;;
45842;SDS011;31563;51.744;8.252;2023-08-07T08:23:51;2.45;;;0.80;;
45842;SDS011;31563;51.744;8.252;2023-08-07T08:26:19;2.58;;;0.80;;
45842;SDS011;31563;51.744;8.252;2023-08-07T08:28:47;2.78;;;0.90;;
45842;SDS011;31563;51.744;8.252;2023-08-07T08:31:15;4.90;;;0.90;;
45842;SDS011;31563;51.744;8.252;2023-08-07T08:33:44;3.00;;;1.02;;
45842;SDS011;31563;51.744;8.252;2023-08-07T08:36:12;2.15;;;0.55;;
45842;SDS011;31563;51.744;8.252;2023-08-07T08:38:40;2.33;;;1.00;;
45842;SDS011;31563;51.744;8.252;2023-08-07T08:41:08;3.72;;;1.25;;
45842;SDS011;31563;51.744;8.252;2023-08-07T08:43:37;4.65;;;1.25;;
45842;SDS011;31563;51.744;8.252;2023-08-07T08:46:07;5.68;;;1.35;;
45842;SDS011;31563;51.744;8.252;2023-08-07T08:48:38;4.03;;;1.20;;
45842;SDS011;31563;51.744;8.252;2023-08-07T08:51:08;6.27;;;1.40;;
45842;SDS011;31563;51.744;8.252;2023-08-07T08:53:37;4.68;;;1.35;;
45842;SDS011;31563;51.744;8.252;2023-08-07T08:56:06;6.55;;;1.77;;
45842;SDS011;31563;51.744;8.252;2023-08-07T08:58:34;7.50;;;1.80;;
45842;SDS011;31563;51.744;8.252;2023-08-07T09:01:02;4.03;;;1.33;;
45842;SDS011;31563;51.744;8.252;2023-08-07T09:03:32;4.25;;;1.38;;
45842;SDS011;31563;51.744;8.252;2023-08-07T09:06:00;4.45;;;0.90;;
45842;SDS011;31563;51.744;8.252;2023-08-07T09:08:30;2.70;;;1.13;;
45842;SDS011;31563;51.744;8.252;2023-08-07T09:10:59;3.55;;;1.00;;
45842;SDS011;31563;51.744;8.252;2023-08-07T09:13:27;2.95;;;1.02;;
45842;SDS011;31563;51.744;8.252;2023-08-07T09:15:56;5.82;;;1.10;;
45842;SDS011;31563;51.744;8.252;2023-08-07T09:18:27;3.72;;;1.13;;
45842;SDS011;31563;51.744;8.252;2023-08-07T09:20:55;3.10;;;1.27;;
45842;SDS011;31563;51.744;8.252;2023-08-07T09:23:24;6.25;;;1.30;;
45842;SDS011;31563;51.744;8.252;2023-08-07T09:25:59;4.15;;;1.35;;
45842;SDS011;31563;51.744;8.252;2023-08-07T09:28:28;4.35;;;1.15;;
45842;SDS011;31563;51.744;8.252;2023-08-07T09:30:56;3.63;;;1.27;;
45842;SDS011;31563;51.744;8.252;2023-08-07T09:33:26;4.80;;;1.42;;
45842;SDS011;31563;51.744;8.252;2023-08-07T09:35:57;4.55;;;1.30;;
45842;SDS011;31563;51.744;8.252;2023-08-07T09:38:27;6.93;;;1.58;;
45842;SDS011;31563;51.744;8.252;2023-08-07T09:40:57;6.15;;;1.35;;
45842;SDS011;31563;51.744;8.252;2023-08-07T09:46:01;5.25;;;1.45;;
45842;SDS011;31563;51.744;8.252;2023-08-07T09:48:30;6.95;;;1.60;;
45842;SDS011;31563;51.744;8.252;2023-08-07T09:51:00;4.43;;;1.52;;
45842;SDS011;31563;51.744;8.252;2023-08-07T09:53:29;3.40;;;1.00;;
45842;SDS011;31563;51.744;8.252;2023-08-07T09:55:58;3.30;;;1.05;;
45842;SDS011;31563;51.744;8.252;2023-08-07T09:58:27;5.93;;;1.48;;
45842;SDS011;31563;51.744;8.252;2023-08-07T10:00:58;4.07;;;1.40;;
45842;SDS011;31563;51.744;8.252;2023-08-07T10:03:26;6.82;;;1.40;;
45842;SDS011;31563;51.744;8.252;2023-08-07T10:05:55;3.78;;;1.40;;
45842;SDS011;31563;51.744;8.252;2023-08-07T10:08:23;5.97;;;1.55;;
45842;SDS011;31563;51.744;8.252;2023-08-07T10:10:51;6.15;;;1.75;;
45842;SDS011;31563;51.744;8.252;2023-08-07T10:13:21;6.78;;;1.50;;
45842;SDS011;31563;51.744;8.252;2023-08-07T10:16:04;3.10;;;1.67;;
45842;SDS011;31563;51.744;8.252;2023-08-07T10:18:32;7.53;;;2.40;;
45842;SDS011;31563;51.744;8.252;2023-08-07T10:21:01;5.15;;;2.00;;
45842;SDS011;31563;51.744;8.252;2023-08-07T10:23:29;6.27;;;2.27;;
45842;SDS011;31563;51.744;8.252;2023-08-07T10:25:59;4.10;;;1.58;;
45842;SDS011;31563;51.744;8.252;2023-08-07T10:28:30;6.65;;;1.70;;
45842;SDS011;31563;51.744;8.252;2023-08-07T10:31:04;6.07;;;1.83;;
45842;SDS011;31563;51.744;8.252;2023-08-07T10:33:32;8.25;;;2.22;;
45842;SDS011;31563;51.744;8.252;2023-08-07T10:36:01;5.28;;;1.60;;
45842;SDS011;31563;51.744;8.252;2023-08-07T10:38:36;4.88;;;1.67;;
45842;SDS011;31563;51.744;8.252;2023-08-07T10:41:06;4.82;;;2.08;;
45842;SDS011;31563;51.744;8.252;2023-08-07T10:43:40;5.10;;;1.92;;
45842;SDS011;31563;51.744;8.252;2023-08-07T10:46:09;7.22;;;3.00;;
45842;SDS011;31563;51.744;8.252;2023-08-07T10:48:42;6.38;;;2.00;;
45842;SDS011;31563;51.744;8.252;2023-08-07T10:51:14;4.65;;;1.55;;
45842;SDS011;31563;51.744;8.252;2023-08-07T10:53:43;5.90;;;1.95;;
45842;SDS011;31563;51.744;8.252;2023-08-07T10:56:15;4.95;;;1.70;;
45842;SDS011;31563;51.744;8.252;2023-08-07T10:58:47;4.85;;;1.95;;
45842;SDS011;31563;51.744;8.252;2023-08-07T11:01:18;4.13;;;1.52;;
45842;SDS011;31563;51.744;8.252;2023-08-07T11:03:49;2.75;;;1.38;;
45842;SDS011;31563;51.744;8.252;2023-08-07T11:06:21;3.45;;;1.40;;
45842;SDS011;31563;51.744;8.252;2023-08-07T11:08:50;3.85;;;1.48;;
45842;SDS011;31563;51.744;8.252;2023-08-07T11:11:18;3.67;;;1.37;;
45842;SDS011;31563;51.744;8.252;2023-08-07T11:13:47;4.22;;;1.25;;
45842;SDS011;31563;51.744;8.252;2023-08-07T11:18:44;3.30;;;1.10;;
45842;SDS011;31563;51.744;8.252;2023-08-07T11:21:11;3.55;;;1.50;;
45842;SDS011;31563;51.744;8.252;2023-08-07T11:23:40;3.65;;;1.48;;
45842;SDS011;31563;51.744;8.252;2023-08-07T11:26:10;4.25;;;1.40;;
45842;SDS011;31563;51.744;8.252;2023-08-07T11:28:39;3.17;;;1.42;;
45842;SDS011;31563;51.744;8.252;2023-08-07T11:31:09;5.15;;;1.45;;
45842;SDS011;31563;51.744;8.252;2023-08-07T11:33:37;3.17;;;1.40;;
45842;SDS011;31563;51.744;8.252;2023-08-07T11:36:09;4.38;;;1.40;;
45842;SDS011;31563;51.744;8.252;2023-08-07T11:38:39;3.75;;;1.23;;
45842;SDS011;31563;51.744;8.252;2023-08-07T11:41:09;6.18;;;1.42;;
45842;SDS011;31563;51.744;8.252;2023-08-07T11:43:38;4.63;;;1.55;;
45842;SDS011;31563;51.744;8.252;2023-08-07T11:46:09;3.42;;;1.30;;
45842;SDS011;31563;51.744;8.252;2023-08-07T11:48:38;3.58;;;1.58;;
45842;SDS011;31563;51.744;8.252;2023-08-07T11:51:07;3.28;;;1.60;;
45842;SDS011;31563;51.744;8.252;2023-08-07T11:53:35;3.15;;;1.30;;
45842;SDS011;31563;51.744;8.252;2023-08-07T11:56:07;4.70;;;1.70;;
45842;SDS011;31563;51.744;8.252;2023-08-07T11:58:37;3.17;;;1.45;;
45842;SDS011;31563;51.744;8.252;2023-08-07T12:01:06;5.40;;;1.80;;
45842;SDS011;31563;51.744;8.252;2023-08-07T12:03:38;5.75;;;1.73;;
45842;SDS011;31563;51.744;8.252;2023-08-07T12:06:08;5.80;;;1.77;;
45842;SDS011;31563;51.744;8.252;2023-08-07T12:08:38;3.28;;;1.50;;
45842;SDS011;31563;51.744;8.252;2023-08-07T12:11:07;4.00;;;1.60;;
45842;SDS011;31563;51.744;8.252;2023-08-07T12:13:37;3.90;;;1.70;;
45842;SDS011;31563;51.744;8.252;2023-08-07T12:16:05;3.60;;;1.35;;
45842;SDS011;31563;51.744;8.252;2023-08-07T12:18:37;4.05;;;1.60;;
45842;SDS011;31563;51.744;8.252;2023-08-07T12:21:06;4.32;;;1.70;;
45842;SDS011;31563;51.744;8.252;2023-08-07T12:23:35;4.45;;;1.70;;
45842;SDS011;31563;51.744;8.252;2023-08-07T12:26:03;2.55;;;1.52;;
45842;SDS011;31563;51.744;8.252;2023-08-07T12:31:01;3.45;;;1.65;;
45842;SDS011;31563;51.744;8.252;2023-08-07T12:33:29;3.67;;;1.65;;
45842;SDS011;31563;51.744;8.252;2023-08-07T12:35:59;4.30;;;1.70;;
45842;SDS011;31563;51.744;8.252;2023-08-07T12:38:28;3.53;;;1.50;;
45842;SDS011;31563;51.744;8.252;2023-08-07T12:40:56;3.75;;;1.75;;
45842;SDS011;31563;51.744;8.252;2023-08-07T12:43:24;3.15;;;1.20;;
45842;SDS011;31563;51.744;8.252;2023-08-07T12:45:52;4.75;;;1.45;;
45842;SDS011;31563;51.744;8.252;2023-08-07T12:48:40;3.70;;;1.17;;
45842;SDS011;31563;51.744;8.252;2023-08-07T12:51:10;4.18;;;1.45;;
45842;SDS011;31563;51.744;8.252;2023-08-07T12:53:38;3.35;;;1.45;;
45842;SDS011;31563;51.744;8.252;2023-08-07T12:56:05;3.13;;;1.48;;
45842;SDS011;31563;51.744;8.252;2023-08-07T12:58:33;4.45;;;1.42;;
45842;SDS011;31563;51.744;8.252;2023-08-07T13:01:01;2.60;;;1.15;;
45842;SDS011;31563;51.744;8.252;2023-08-07T13:03:31;3.83;;;1.13;;
45842;SDS011;31563;51.744;8.252;2023-08-07T13:05:59;4.25;;;1.52;;
45842;SDS011;31563;51.744;8.252;2023-08-07T13:08:32;4.75;;;1.20;;
45842;SDS011;31563;51.744;8.252;2023-08-07T13:11:01;2.83;;;1.25;;
45842;SDS011;31563;51.744;8.252;2023-08-07T13:13:29;3.20;;;1.15;;
45842;SDS011;31563;51.744;8.252;2023-08-07T13:15:57;4.53;;;1.20;;
45842;SDS011;31563;51.744;8.252;2023-08-07T13:18:25;3.42;;;1.30;;
45842;SDS011;31563;51.744;8.252;2023-08-07T13:20:53;5.38;;;1.40;;
45842;SDS011;31563;51.744;8.252;2023-08-07T13:23:21;5.03;;;1.40;;
45842;SDS011;31563;51.744;8.252;2023-08-07T13:25:50;3.75;;;1.38;;
45842;SDS011;31563;51.744;8.252;2023-08-07T13:28:18;4.45;;;1.27;;
45842;SDS011;31563;51.744;8.252;2023-08-07T13:30:46;2.95;;;1.15;;
45842;SDS011;31563;51.744;8.252;2023-08-07T13:33:13;3.90;;;1.17;;
45842;SDS011;31563;51.744;8.252;2023-08-07T13:35:41;3.33;;;1.25;;
45842;SDS011;31563;51.744;8.252;2023-08-07T13:38:09;3.00;;;1.20;;
45842;SDS011;31563;51.744;8.252;2023-08-07T13:40:39;3.15;;;1.13;;
45842;SDS011;31563;51.744;8.252;2023-08-07T13:43:08;3.42;;;0.98;;
45842;SDS011;31563;51.744;8.252;2023-08-07T13:48:04;3.22;;;1.10;;
45842;SDS011;31563;51.744;8.252;2023-08-07T13:50:35;3.15;;;1.10;;
45842;SDS011;31563;51.744;8.252;2023-08-07T13:53:04;3.63;;;1.00;;
45842;SDS011;31563;51.744;8.252;2023-08-07T13:55:41;4.32;;;1.20;;
45842;SDS011;31563;51.744;8.252;2023-08-07T13:58:10;4.50;;;1.38;;
45842;SDS011;31563;51.744;8.252;2023-08-07T14:00:38;3.22;;;1.02;;
45842;SDS011;31563;51.744;8.252;2023-08-07T14:03:07;2.90;;;1.00;;
45842;SDS011;31563;51.744;8.252;2023-08-07T14:08:04;3.07;;;1.10;;
45842;SDS011;31563;51.744;8.252;2023-08-07T14:10:32;3.08;;;1.17;;
45842;SDS011;31563;51.744;8.252;2023-08-07T14:13:02;2.20;;;1.02;;
45842;SDS011;31563;51.744;8.252;2023-08-07T14:15:31;3.40;;;1.08;;
45842;SDS011;31563;51.744;8.252;2023-08-07T14:17:59;3.25;;;1.00;;
45842;SDS011;31563;51.744;8.252;2023-08-07T14:20:27;1.45;;;0.70;;
45842;SDS011;31563;51.744;8.252;2023-08-07T14:22:55;3.17;;;1.23;;
45842;SDS011;31563;51.744;8.252;2023-08-07T14:25:37;2.75;;;1.00;;
45842;SDS011;31563;51.744;8.252;2023-08-07T14:28:05;2.33;;;1.02;;
45842;SDS011;31563;51.744;8.252;2023-08-07T14:30:35;3.63;;;0.88;;
45842;SDS011;31563;51.744;8.252;2023-08-07T14:33:03;3.25;;;1.02;;
45842;SDS011;31563;51.744;8.252;2023-08-07T14:35:31;2.67;;;1.10;;
45842;SDS011;31563;51.744;8.252;2023-08-07T14:37:59;2.60;;;1.17;;
45842;SDS011;31563;51.744;8.252;2023-08-07T14:40:28;3.75;;;1.05;;
45842;SDS011;31563;51.744;8.252;2023-08-07T14:42:56;3.88;;;1.27;;
45842;SDS011;31563;51.744;8.252;2023-08-07T14:45:24;5.70;;;1.33;;
45842;SDS011;31563;51.744;8.252;2023-08-07T14:47:53;4.25;;;1.25;;
45842;SDS011;31563;51.744;8.252;2023-08-07T14:50:21;2.70;;;1.10;;
45842;SDS011;31563;51.744;8.252;2023-08-07T14:52:49;2.10;;;1.00;;
45842;SDS011;31563;51.744;8.252;2023-08-07T14:55:17;5.10;;;1.40;;
45842;SDS011;31563;51.744;8.252;2023-08-07T14:57:45;3.17;;;1.33;;
45842;SDS011;31563;51.744;8.252;2023-08-07T15:00:13;5.15;;;1.30;;
45842;SDS011;31563;51.744;8.252;2023-08-07T15:02:43;3.17;;;1.13;;
45842;SDS011;31563;51.744;8.252;2023-08-07T15:05:13;4.13;;;1.30;;
45842;SDS011;31563;51.744;8.252;2023-08-07T15:07:41;5.07;;;1.45;;
45842;SDS011;31563;51.744;8.252;2023-08-07T15:10:09;4.30;;;1.20;;
45842;SDS011;31563;51.744;8.252;2023-08-07T15:12:37;4.68;;;1.42;;